sensor_id;sensor_type;location;lat;lon;timestamp;temperature;humidity
9949;DHT22;5013;51.840;8.276;2023-07-29T00:01:09;20.20;1.00
9949;DHT22;5013;51.840;8.276;2023-07-29T00:03:34;20.20;1.00
9949;DHT22;5013;51.840;8.276;2023-07-29T00:06:00;20.20;99.90
9949;DHT22;5013;51.840;8.276;2023-07-29T00:08:26;20.20;1.00
9949;DHT22;5013;51.840;8.276;2023-07-29T00:10:51;20.30;1.00
9949;DHT22;5013;51.840;8.276;2023-07-29T00:13:17;20.20;1.00
9949;DHT22;5013;51.840;8.276;2023-07-29T00:15:43;20.20;99.90
9949;DHT22;5013;51.840;8.276;2023-07-29T00:18:08;20.30;1.00
9949;DHT22;5013;51.840;8.276;2023-07-29T00:20:34;20.30;99.90
9949;DHT22;5013;51.840;8.276;2023-07-29T00:23:00;20.30;1.00
9949;DHT22;5013;51.840;8.276;2023-07-29T00:25:26;20.20;1.00
9949;DHT22;5013;51.840;8.276;2023-07-29T00:27:54;20.20;1.00
9949;DHT22;5013;51.840;8.276;2023-07-29T00:30:19;20.20;99.90
9949;DHT22;5013;51.840;8.276;2023-07-29T00:32:45;20.20;43.90
9949;DHT22;5013;51.840;8.276;2023-07-29T00:35:11;20.20;99.90
9949;DHT22;5013;51.840;8.276;2023-07-29T00:37:36;20.20;1.00
9949;DHT22;5013;51.840;8.276;2023-07-29T00:40:04;20.20;99.90
9949;DHT22;5013;51.840;8.276;2023-07-29T00:42:30;20.20;1.00
9949;DHT22;5013;51.840;8.276;2023-07-29T00:44:56;20.20;1.00
9949;DHT22;5013;51.840;8.276;2023-07-29T00:47:22;20.20;91.70
9949;DHT22;5013;51.840;8.276;2023-07-29T00:49:47;20.20;99.90
9949;DHT22;5013;51.840;8.276;2023-07-29T00:52:13;20.20;99.90
9949;DHT22;5013;51.840;8.276;2023-07-29T00:54:39;20.10;99.90
9949;DHT22;5013;51.840;8.276;2023-07-29T00:57:08;20.20;99.90
9949;DHT22;5013;51.840;8.276;2023-07-29T00:59:35;20.20;99.90
9949;DHT22;5013;51.840;8.276;2023-07-29T01:02:01;20.20;1.00
9949;DHT22;5013;51.840;8.276;2023-07-29T01:04:26;20.20;1.00
9949;DHT22;5013;51.840;8.276;2023-07-29T01:09:33;20.20;1.00
9949;DHT22;5013;51.840;8.276;2023-07-29T01:12:12;20.20;1.00
9949;DHT22;5013;51.840;8.276;2023-07-29T01:14:50;20.20;1.00
9949;DHT22;5013;51.840;8.276;2023-07-29T01:17:23;20.20;53.10
9949;DHT22;5013;51.840;8.276;2023-07-29T01:20:07;20.20;99.90
9949;DHT22;5013;51.840;8.276;2023-07-29T01:22:35;20.20;99.90
9949;DHT22;5013;51.840;8.276;2023-07-29T01:25:00;20.10;1.00
9949;DHT22;5013;51.840;8.276;2023-07-29T01:27:26;20.10;1.00
9949;DHT22;5013;51.840;8.276;2023-07-29T01:29:53;20.00;99.90
9949;DHT22;5013;51.840;8.276;2023-07-29T01:35:22;20.10;99.90
9949;DHT22;5013;51.840;8.276;2023-07-29T01:37:56;20.00;1.00
9949;DHT22;5013;51.840;8.276;2023-07-29T01:40:27;19.90;1.00
9949;DHT22;5013;51.840;8.276;2023-07-29T01:42:53;19.90;1.00
9949;DHT22;5013;51.840;8.276;2023-07-29T01:45:19;19.80;1.00
9949;DHT22;5013;51.840;8.276;2023-07-29T01:47:44;19.80;15.60
9949;DHT22;5013;51.840;8.276;2023-07-29T01:50:10;19.70;30.00
9949;DHT22;5013;51.840;8.276;2023-07-29T01:52:36;19.70;99.90
9949;DHT22;5013;51.840;8.276;2023-07-29T01:55:02;19.70;99.90
9949;DHT22;5013;51.840;8.276;2023-07-29T01:57:27;19.70;94.30
9949;DHT22;5013;51.840;8.276;2023-07-29T01:59:53;19.70;82.50
9949;DHT22;5013;51.840;8.276;2023-07-29T02:02:19;19.60;99.90
9949;DHT22;5013;51.840;8.276;2023-07-29T02:04:44;19.60;99.90
9949;DHT22;5013;51.840;8.276;2023-07-29T02:07:10;19.60;99.90
9949;DHT22;5013;51.840;8.276;2023-07-29T02:09:36;19.60;99.90
9949;DHT22;5013;51.840;8.276;2023-07-29T02:12:01;19.60;99.90
9949;DHT22;5013;51.840;8.276;2023-07-29T02:14:28;19.60;99.90
9949;DHT22;5013;51.840;8.276;2023-07-29T02:16:53;19.60;99.90
9949;DHT22;5013;51.840;8.276;2023-07-29T02:19:19;19.60;99.90
9949;DHT22;5013;51.840;8.276;2023-07-29T02:21:44;19.60;99.90
9949;DHT22;5013;51.840;8.276;2023-07-29T02:24:10;19.70;99.90
9949;DHT22;5013;51.840;8.276;2023-07-29T02:26:36;19.70;99.90
9949;DHT22;5013;51.840;8.276;2023-07-29T02:29:01;19.80;99.90
9949;DHT22;5013;51.840;8.276;2023-07-29T02:31:27;19.80;99.90
9949;DHT22;5013;51.840;8.276;2023-07-29T02:33:52;19.80;83.80
9949;DHT22;5013;51.840;8.276;2023-07-29T02:36:18;19.80;34.90
9949;DHT22;5013;51.840;8.276;2023-07-29T02:38:44;19.80;94.00
9949;DHT22;5013;51.840;8.276;2023-07-29T02:41:10;19.80;22.10
9949;DHT22;5013;51.840;8.276;2023-07-29T02:43:37;19.70;99.90
9949;DHT22;5013;51.840;8.276;2023-07-29T02:46:03;19.70;99.90
9949;DHT22;5013;51.840;8.276;2023-07-29T02:48:29;19.80;99.90
9949;DHT22;5013;51.840;8.276;2023-07-29T02:50:55;19.70;99.90
9949;DHT22;5013;51.840;8.276;2023-07-29T02:53:22;19.70;99.90
9949;DHT22;5013;51.840;8.276;2023-07-29T02:55:48;19.70;99.90
9949;DHT22;5013;51.840;8.276;2023-07-29T02:58:13;19.60;99.90
9949;DHT22;5013;51.840;8.276;2023-07-29T03:00:39;19.60;99.90
9949;DHT22;5013;51.840;8.276;2023-07-29T03:03:07;19.60;99.90
9949;DHT22;5013;51.840;8.276;2023-07-29T03:05:33;19.50;99.90
9949;DHT22;5013;51.840;8.276;2023-07-29T03:07:59;19.50;99.90
9949;DHT22;5013;51.840;8.276;2023-07-29T03:10:25;19.50;99.90
9949;DHT22;5013;51.840;8.276;2023-07-29T03:12:50;19.50;99.90
9949;DHT22;5013;51.840;8.276;2023-07-29T03:15:16;19.50;99.90
9949;DHT22;5013;51.840;8.276;2023-07-29T03:17:42;19.50;99.90
9949;DHT22;5013;51.840;8.276;2023-07-29T03:20:08;19.50;99.90
9949;DHT22;5013;51.840;8.276;2023-07-29T03:22:33;19.50;99.90
9949;DHT22;5013;51.840;8.276;2023-07-29T03:24:59;19.60;99.90
9949;DHT22;5013;51.840;8.276;2023-07-29T03:27:24;19.60;99.90
9949;DHT22;5013;51.840;8.276;2023-07-29T03:29:50;19.60;99.90
9949;DHT22;5013;51.840;8.276;2023-07-29T03:32:16;19.60;99.90
9949;DHT22;5013;51.840;8.276;2023-07-29T03:34:41;19.50;99.90
9949;DHT22;5013;51.840;8.276;2023-07-29T03:37:07;19.60;99.90
9949;DHT22;5013;51.840;8.276;2023-07-29T03:39:32;19.60;99.90
9949;DHT22;5013;51.840;8.276;2023-07-29T03:41:58;19.60;99.90
9949;DHT22;5013;51.840;8.276;2023-07-29T03:44:23;19.60;99.90
9949;DHT22;5013;51.840;8.276;2023-07-29T03:46:49;19.60;99.90
9949;DHT22;5013;51.840;8.276;2023-07-29T03:49:15;19.60;99.90
9949;DHT22;5013;51.840;8.276;2023-07-29T03:51:40;19.60;99.90
9949;DHT22;5013;51.840;8.276;2023-07-29T03:54:06;19.50;99.90
9949;DHT22;5013;51.840;8.276;2023-07-29T03:56:32;19.50;99.90
9949;DHT22;5013;51.840;8.276;2023-07-29T03:59:06;19.50;99.90
9949;DHT22;5013;51.840;8.276;2023-07-29T04:01:32;19.50;99.90
9949;DHT22;5013;51.840;8.276;2023-07-29T04:03:58;19.50;99.90
9949;DHT22;5013;51.840;8.276;2023-07-29T04:06:25;19.50;99.90
9949;DHT22;5013;51.840;8.276;2023-07-29T04:08:50;19.50;99.90
9949;DHT22;5013;51.840;8.276;2023-07-29T04:11:16;19.50;99.90
9949;DHT22;5013;51.840;8.276;2023-07-29T04:13:41;19.50;99.90
9949;DHT22;5013;51.840;8.276;2023-07-29T04:16:07;19.40;99.90
9949;DHT22;5013;51.840;8.276;2023-07-29T04:18:33;19.50;99.90
9949;DHT22;5013;51.840;8.276;2023-07-29T04:20:59;19.40;99.90
9949;DHT22;5013;51.840;8.276;2023-07-29T04:23:24;19.50;99.90
9949;DHT22;5013;51.840;8.276;2023-07-29T04:25:50;19.50;99.90
9949;DHT22;5013;51.840;8.276;2023-07-29T04:28:15;19.50;99.90
9949;DHT22;5013;51.840;8.276;2023-07-29T04:30:41;19.50;99.90
9949;DHT22;5013;51.840;8.276;2023-07-29T04:33:07;19.50;99.90
9949;DHT22;5013;51.840;8.276;2023-07-29T04:35:32;19.60;99.90
9949;DHT22;5013;51.840;8.276;2023-07-29T04:37:58;19.50;99.90
9949;DHT22;5013;51.840;8.276;2023-07-29T04:40:24;19.60;99.90
9949;DHT22;5013;51.840;8.276;2023-07-29T04:42:50;19.50;99.90
9949;DHT22;5013;51.840;8.276;2023-07-29T04:45:16;19.50;99.90
9949;DHT22;5013;51.840;8.276;2023-07-29T04:47:42;19.50;99.90
9949;DHT22;5013;51.840;8.276;2023-07-29T04:50:08;19.60;99.90
9949;DHT22;5013;51.840;8.276;2023-07-29T04:52:33;19.60;99.90
9949;DHT22;5013;51.840;8.276;2023-07-29T04:54:59;19.70;99.90
9949;DHT22;5013;51.840;8.276;2023-07-29T04:57:24;19.90;99.90
9949;DHT22;5013;51.840;8.276;2023-07-29T04:59:50;19.90;99.90
9949;DHT22;5013;51.840;8.276;2023-07-29T05:02:15;19.90;99.90
9949;DHT22;5013;51.840;8.276;2023-07-29T05:04:41;19.90;99.90
9949;DHT22;5013;51.840;8.276;2023-07-29T05:07:07;19.90;99.90
9949;DHT22;5013;51.840;8.276;2023-07-29T05:09:32;19.90;99.90
9949;DHT22;5013;51.840;8.276;2023-07-29T05:11:58;19.90;99.90
9949;DHT22;5013;51.840;8.276;2023-07-29T05:14:23;20.00;99.90
9949;DHT22;5013;51.840;8.276;2023-07-29T05:16:49;20.00;99.90
9949;DHT22;5013;51.840;8.276;2023-07-29T05:19:15;20.10;99.90
9949;DHT22;5013;51.840;8.276;2023-07-29T05:21:40;20.20;99.90
9949;DHT22;5013;51.840;8.276;2023-07-29T05:24:06;20.20;99.90
9949;DHT22;5013;51.840;8.276;2023-07-29T05:26:32;20.20;99.90
9949;DHT22;5013;51.840;8.276;2023-07-29T05:28:57;20.30;99.90
9949;DHT22;5013;51.840;8.276;2023-07-29T05:31:23;20.20;99.90
9949;DHT22;5013;51.840;8.276;2023-07-29T05:33:49;20.40;99.90
9949;DHT22;5013;51.840;8.276;2023-07-29T05:36:14;20.40;88.90
9949;DHT22;5013;51.840;8.276;2023-07-29T05:38:40;20.40;98.10
9949;DHT22;5013;51.840;8.276;2023-07-29T05:41:06;20.30;58.50
9949;DHT22;5013;51.840;8.276;2023-07-29T05:43:32;20.20;99.90
9949;DHT22;5013;51.840;8.276;2023-07-29T05:45:57;20.30;99.90
9949;DHT22;5013;51.840;8.276;2023-07-29T05:48:23;20.30;99.90
9949;DHT22;5013;51.840;8.276;2023-07-29T05:50:48;20.30;99.90
9949;DHT22;5013;51.840;8.276;2023-07-29T05:53:14;20.30;99.90
9949;DHT22;5013;51.840;8.276;2023-07-29T05:55:40;20.30;99.90
9949;DHT22;5013;51.840;8.276;2023-07-29T05:58:05;20.30;99.90
9949;DHT22;5013;51.840;8.276;2023-07-29T06:00:31;20.30;99.90
9949;DHT22;5013;51.840;8.276;2023-07-29T06:02:57;20.30;94.30
9949;DHT22;5013;51.840;8.276;2023-07-29T06:05:22;20.40;99.90
9949;DHT22;5013;51.840;8.276;2023-07-29T06:07:48;20.40;95.30
9949;DHT22;5013;51.840;8.276;2023-07-29T06:10:15;20.40;99.90
9949;DHT22;5013;51.840;8.276;2023-07-29T06:12:45;20.40;24.10
9949;DHT22;5013;51.840;8.276;2023-07-29T06:15:10;20.40;16.80
9949;DHT22;5013;51.840;8.276;2023-07-29T06:17:37;20.30;44.90
9949;DHT22;5013;51.840;8.276;2023-07-29T06:20:03;20.30;90.40
9949;DHT22;5013;51.840;8.276;2023-07-29T06:22:29;20.30;99.90
9949;DHT22;5013;51.840;8.276;2023-07-29T06:24:54;20.40;99.90
9949;DHT22;5013;51.840;8.276;2023-07-29T06:27:20;20.50;99.90
9949;DHT22;5013;51.840;8.276;2023-07-29T06:29:45;20.60;1.00
9949;DHT22;5013;51.840;8.276;2023-07-29T06:32:11;20.70;1.00
9949;DHT22;5013;51.840;8.276;2023-07-29T06:34:37;20.70;1.00
9949;DHT22;5013;51.840;8.276;2023-07-29T06:37:02;20.80;1.00
9949;DHT22;5013;51.840;8.276;2023-07-29T06:39:28;20.80;1.00
9949;DHT22;5013;51.840;8.276;2023-07-29T06:41:53;20.80;1.00
9949;DHT22;5013;51.840;8.276;2023-07-29T06:44:19;20.80;1.00
9949;DHT22;5013;51.840;8.276;2023-07-29T06:46:44;20.80;1.00
9949;DHT22;5013;51.840;8.276;2023-07-29T06:49:10;20.90;1.00
9949;DHT22;5013;51.840;8.276;2023-07-29T06:51:35;21.00;1.00
9949;DHT22;5013;51.840;8.276;2023-07-29T06:54:02;21.00;1.00
9949;DHT22;5013;51.840;8.276;2023-07-29T06:56:28;20.90;1.00
9949;DHT22;5013;51.840;8.276;2023-07-29T06:58:54;20.90;99.90
9949;DHT22;5013;51.840;8.276;2023-07-29T07:01:19;20.90;99.90
9949;DHT22;5013;51.840;8.276;2023-07-29T07:03:45;20.90;99.90
9949;DHT22;5013;51.840;8.276;2023-07-29T07:06:10;20.80;99.90
9949;DHT22;5013;51.840;8.276;2023-07-29T07:08:36;20.90;99.90
9949;DHT22;5013;51.840;8.276;2023-07-29T07:11:02;21.00;99.90
9949;DHT22;5013;51.840;8.276;2023-07-29T07:13:27;20.90;96.20
9949;DHT22;5013;51.840;8.276;2023-07-29T07:15:56;21.00;1.00
9949;DHT22;5013;51.840;8.276;2023-07-29T07:18:22;21.10;99.90
9949;DHT22;5013;51.840;8.276;2023-07-29T07:20:51;21.30;99.90
9949;DHT22;5013;51.840;8.276;2023-07-29T07:23:17;21.40;63.40
9949;DHT22;5013;51.840;8.276;2023-07-29T07:25:43;21.50;1.00
9949;DHT22;5013;51.840;8.276;2023-07-29T07:28:09;21.50;1.00
9949;DHT22;5013;51.840;8.276;2023-07-29T07:30:35;21.60;99.90
9949;DHT22;5013;51.840;8.276;2023-07-29T07:33:04;21.60;1.00
9949;DHT22;5013;51.840;8.276;2023-07-29T07:35:30;21.70;1.00
9949;DHT22;5013;51.840;8.276;2023-07-29T07:37:55;21.90;1.00
9949;DHT22;5013;51.840;8.276;2023-07-29T07:40:21;22.00;99.90
9949;DHT22;5013;51.840;8.276;2023-07-29T07:42:46;21.90;99.90
9949;DHT22;5013;51.840;8.276;2023-07-29T07:45:12;21.80;1.00
9949;DHT22;5013;51.840;8.276;2023-07-29T07:47:37;21.90;1.00
9949;DHT22;5013;51.840;8.276;2023-07-29T07:50:03;21.90;1.00
9949;DHT22;5013;51.840;8.276;2023-07-29T07:52:29;21.90;1.00
9949;DHT22;5013;51.840;8.276;2023-07-29T07:54:54;21.90;1.00
9949;DHT22;5013;51.840;8.276;2023-07-29T07:57:21;21.90;1.00
9949;DHT22;5013;51.840;8.276;2023-07-29T07:59:47;21.90;1.00
9949;DHT22;5013;51.840;8.276;2023-07-29T08:02:12;21.80;1.00
9949;DHT22;5013;51.840;8.276;2023-07-29T08:04:38;21.70;1.00
9949;DHT22;5013;51.840;8.276;2023-07-29T08:07:04;21.60;1.00
9949;DHT22;5013;51.840;8.276;2023-07-29T08:09:30;21.50;1.00
9949;DHT22;5013;51.840;8.276;2023-07-29T08:11:55;21.50;1.00
9949;DHT22;5013;51.840;8.276;2023-07-29T08:14:21;21.40;99.90
9949;DHT22;5013;51.840;8.276;2023-07-29T08:16:46;21.30;1.00
9949;DHT22;5013;51.840;8.276;2023-07-29T08:19:12;21.30;99.90
9949;DHT22;5013;51.840;8.276;2023-07-29T08:21:38;21.30;99.90
9949;DHT22;5013;51.840;8.276;2023-07-29T08:24:03;21.40;99.90
9949;DHT22;5013;51.840;8.276;2023-07-29T08:26:29;21.80;99.90
9949;DHT22;5013;51.840;8.276;2023-07-29T08:28:55;21.80;1.00
9949;DHT22;5013;51.840;8.276;2023-07-29T08:31:20;22.10;1.00
9949;DHT22;5013;51.840;8.276;2023-07-29T08:33:46;22.00;1.00
9949;DHT22;5013;51.840;8.276;2023-07-29T08:36:11;22.10;1.00
9949;DHT22;5013;51.840;8.276;2023-07-29T08:38:37;22.30;1.00
9949;DHT22;5013;51.840;8.276;2023-07-29T08:41:25;22.30;1.00
9949;DHT22;5013;51.840;8.276;2023-07-29T08:44:12;22.40;1.00
9949;DHT22;5013;51.840;8.276;2023-07-29T08:46:39;22.70;99.90
9949;DHT22;5013;51.840;8.276;2023-07-29T08:49:05;23.00;1.00
9949;DHT22;5013;51.840;8.276;2023-07-29T08:51:31;23.60;99.90
9949;DHT22;5013;51.840;8.276;2023-07-29T08:53:58;23.50;99.90
9949;DHT22;5013;51.840;8.276;2023-07-29T08:56:25;23.50;99.90
9949;DHT22;5013;51.840;8.276;2023-07-29T08:58:51;23.40;99.90
9949;DHT22;5013;51.840;8.276;2023-07-29T09:01:17;23.40;99.90
9949;DHT22;5013;51.840;8.276;2023-07-29T09:03:43;23.50;99.90
9949;DHT22;5013;51.840;8.276;2023-07-29T09:06:08;23.60;99.90
9949;DHT22;5013;51.840;8.276;2023-07-29T09:08:35;23.60;99.90
9949;DHT22;5013;51.840;8.276;2023-07-29T09:11:01;23.90;99.90
9949;DHT22;5013;51.840;8.276;2023-07-29T09:13:27;24.10;85.00
9949;DHT22;5013;51.840;8.276;2023-07-29T09:15:57;23.90;94.10
9949;DHT22;5013;51.840;8.276;2023-07-29T09:18:23;24.00;44.70
9949;DHT22;5013;51.840;8.276;2023-07-29T09:20:50;24.30;30.70
9949;DHT22;5013;51.840;8.276;2023-07-29T09:23:16;24.30;1.00
9949;DHT22;5013;51.840;8.276;2023-07-29T09:25:42;24.30;14.80
9949;DHT22;5013;51.840;8.276;2023-07-29T09:28:11;24.30;3.70
9949;DHT22;5013;51.840;8.276;2023-07-29T09:30:42;24.20;1.00
9949;DHT22;5013;51.840;8.276;2023-07-29T09:33:09;24.40;12.60
9949;DHT22;5013;51.840;8.276;2023-07-29T09:35:36;24.40;1.00
9949;DHT22;5013;51.840;8.276;2023-07-29T09:38:03;24.70;1.00
9949;DHT22;5013;51.840;8.276;2023-07-29T09:40:39;24.70;1.00
9949;DHT22;5013;51.840;8.276;2023-07-29T09:43:07;24.90;1.00
9949;DHT22;5013;51.840;8.276;2023-07-29T09:45:34;25.10;1.00
9949;DHT22;5013;51.840;8.276;2023-07-29T09:48:01;24.90;1.00
9949;DHT22;5013;51.840;8.276;2023-07-29T09:50:27;24.70;1.00
9949;DHT22;5013;51.840;8.276;2023-07-29T09:52:54;24.70;1.00
9949;DHT22;5013;51.840;8.276;2023-07-29T09:55:24;24.90;1.00
9949;DHT22;5013;51.840;8.276;2023-07-29T09:57:56;25.10;1.00
9949;DHT22;5013;51.840;8.276;2023-07-29T10:00:23;25.00;1.00
9949;DHT22;5013;51.840;8.276;2023-07-29T10:02:49;24.90;1.00
9949;DHT22;5013;51.840;8.276;2023-07-29T10:05:16;25.30;1.00
9949;DHT22;5013;51.840;8.276;2023-07-29T10:07:41;25.30;1.00
9949;DHT22;5013;51.840;8.276;2023-07-29T10:10:08;25.30;1.00
9949;DHT22;5013;51.840;8.276;2023-07-29T10:12:35;25.40;1.00
9949;DHT22;5013;51.840;8.276;2023-07-29T10:15:03;25.60;1.00
9949;DHT22;5013;51.840;8.276;2023-07-29T10:17:30;26.00;1.00
9949;DHT22;5013;51.840;8.276;2023-07-29T10:19:57;25.70;1.00
9949;DHT22;5013;51.840;8.276;2023-07-29T10:22:28;25.50;1.00
9949;DHT22;5013;51.840;8.276;2023-07-29T10:25:03;25.30;1.00
9949;DHT22;5013;51.840;8.276;2023-07-29T10:27:31;25.40;1.00
9949;DHT22;5013;51.840;8.276;2023-07-29T10:30:00;25.40;1.00
9949;DHT22;5013;51.840;8.276;2023-07-29T10:32:26;25.10;1.00
9949;DHT22;5013;51.840;8.276;2023-07-29T10:34:52;24.80;1.00
9949;DHT22;5013;51.840;8.276;2023-07-29T10:37:18;24.70;1.00
9949;DHT22;5013;51.840;8.276;2023-07-29T10:39:55;25.00;1.00
9949;DHT22;5013;51.840;8.276;2023-07-29T10:42:21;25.20;1.00
9949;DHT22;5013;51.840;8.276;2023-07-29T10:47:20;26.00;1.00
9949;DHT22;5013;51.840;8.276;2023-07-29T10:49:49;26.40;1.00
9949;DHT22;5013;51.840;8.276;2023-07-29T10:52:17;25.90;1.00
9949;DHT22;5013;51.840;8.276;2023-07-29T10:54:52;26.10;1.00
9949;DHT22;5013;51.840;8.276;2023-07-29T10:59:57;26.00;1.00
9949;DHT22;5013;51.840;8.276;2023-07-29T11:02:29;25.60;1.00
9949;DHT22;5013;51.840;8.276;2023-07-29T11:04:56;25.60;1.00
9949;DHT22;5013;51.840;8.276;2023-07-29T11:07:23;25.40;1.00
9949;DHT22;5013;51.840;8.276;2023-07-29T11:09:59;25.20;1.00
9949;DHT22;5013;51.840;8.276;2023-07-29T11:17:34;25.10;1.00
9949;DHT22;5013;51.840;8.276;2023-07-29T11:20:02;25.60;1.00
9949;DHT22;5013;51.840;8.276;2023-07-29T11:22:28;25.90;1.00
9949;DHT22;5013;51.840;8.276;2023-07-29T11:24:54;25.90;1.00
9949;DHT22;5013;51.840;8.276;2023-07-29T11:27:20;26.10;1.00
9949;DHT22;5013;51.840;8.276;2023-07-29T11:29:46;26.20;1.00
9949;DHT22;5013;51.840;8.276;2023-07-29T11:32:12;26.20;1.00
9949;DHT22;5013;51.840;8.276;2023-07-29T11:34:38;26.30;1.00
9949;DHT22;5013;51.840;8.276;2023-07-29T11:37:05;26.50;1.00
9949;DHT22;5013;51.840;8.276;2023-07-29T11:39:32;26.50;1.00
9949;DHT22;5013;51.840;8.276;2023-07-29T11:41:58;26.50;1.00
9949;DHT22;5013;51.840;8.276;2023-07-29T11:44:25;26.70;1.00
9949;DHT22;5013;51.840;8.276;2023-07-29T11:46:50;26.70;1.00
9949;DHT22;5013;51.840;8.276;2023-07-29T11:49:16;26.80;1.00
9949;DHT22;5013;51.840;8.276;2023-07-29T11:51:42;26.60;1.00
9949;DHT22;5013;51.840;8.276;2023-07-29T11:54:08;26.30;1.00
9949;DHT22;5013;51.840;8.276;2023-07-29T11:56:35;26.20;1.00
9949;DHT22;5013;51.840;8.276;2023-07-29T11:59:01;26.30;1.00
9949;DHT22;5013;51.840;8.276;2023-07-29T12:01:28;26.70;1.00
9949;DHT22;5013;51.840;8.276;2023-07-29T12:03:55;26.90;1.00
9949;DHT22;5013;51.840;8.276;2023-07-29T12:06:22;27.00;1.00
9949;DHT22;5013;51.840;8.276;2023-07-29T12:08:49;27.20;1.00
9949;DHT22;5013;51.840;8.276;2023-07-29T12:11:15;27.10;1.00
9949;DHT22;5013;51.840;8.276;2023-07-29T12:13:42;27.00;1.00
9949;DHT22;5013;51.840;8.276;2023-07-29T12:16:07;26.70;1.00
9949;DHT22;5013;51.840;8.276;2023-07-29T12:18:33;26.50;1.00
9949;DHT22;5013;51.840;8.276;2023-07-29T12:20:59;26.30;1.00
9949;DHT22;5013;51.840;8.276;2023-07-29T12:23:25;26.10;1.00
9949;DHT22;5013;51.840;8.276;2023-07-29T12:25:58;26.20;1.00
9949;DHT22;5013;51.840;8.276;2023-07-29T12:28:24;26.40;1.00
9949;DHT22;5013;51.840;8.276;2023-07-29T12:30:54;26.20;1.00
9949;DHT22;5013;51.840;8.276;2023-07-29T12:33:30;26.00;1.00
9949;DHT22;5013;51.840;8.276;2023-07-29T12:35:56;25.60;1.00
9949;DHT22;5013;51.840;8.276;2023-07-29T12:38:21;25.30;1.00
9949;DHT22;5013;51.840;8.276;2023-07-29T12:40:47;25.20;1.00
9949;DHT22;5013;51.840;8.276;2023-07-29T12:43:13;24.90;1.00
9949;DHT22;5013;51.840;8.276;2023-07-29T12:45:39;25.00;1.00
9949;DHT22;5013;51.840;8.276;2023-07-29T12:48:08;25.10;1.00
9949;DHT22;5013;51.840;8.276;2023-07-29T12:50:33;25.40;1.00
9949;DHT22;5013;51.840;8.276;2023-07-29T12:52:59;25.90;1.00
9949;DHT22;5013;51.840;8.276;2023-07-29T12:55:24;26.40;1.00
9949;DHT22;5013;51.840;8.276;2023-07-29T12:57:50;26.60;1.00
9949;DHT22;5013;51.840;8.276;2023-07-29T13:00:16;26.50;1.00
9949;DHT22;5013;51.840;8.276;2023-07-29T13:02:42;26.60;1.00
9949;DHT22;5013;51.840;8.276;2023-07-29T13:05:11;26.70;1.00
9949;DHT22;5013;51.840;8.276;2023-07-29T13:07:40;26.50;1.00
9949;DHT22;5013;51.840;8.276;2023-07-29T13:10:07;26.40;1.00
9949;DHT22;5013;51.840;8.276;2023-07-29T13:12:33;26.70;1.00
9949;DHT22;5013;51.840;8.276;2023-07-29T13:15:00;26.80;1.00
9949;DHT22;5013;51.840;8.276;2023-07-29T13:17:25;26.30;1.00
9949;DHT22;5013;51.840;8.276;2023-07-29T13:19:51;26.00;1.00
9949;DHT22;5013;51.840;8.276;2023-07-29T13:22:17;25.80;1.00
9949;DHT22;5013;51.840;8.276;2023-07-29T13:24:42;25.50;1.00
9949;DHT22;5013;51.840;8.276;2023-07-29T13:27:08;25.20;1.00
9949;DHT22;5013;51.840;8.276;2023-07-29T13:29:33;25.10;1.00
9949;DHT22;5013;51.840;8.276;2023-07-29T13:31:59;25.10;1.00
9949;DHT22;5013;51.840;8.276;2023-07-29T13:34:25;25.20;1.00
9949;DHT22;5013;51.840;8.276;2023-07-29T13:36:50;25.50;1.00
9949;DHT22;5013;51.840;8.276;2023-07-29T13:39:16;25.80;1.00
9949;DHT22;5013;51.840;8.276;2023-07-29T13:41:41;25.90;1.00
9949;DHT22;5013;51.840;8.276;2023-07-29T13:44:07;26.10;1.00
9949;DHT22;5013;51.840;8.276;2023-07-29T13:46:33;26.20;1.00
9949;DHT22;5013;51.840;8.276;2023-07-29T13:48:58;26.60;1.00
9949;DHT22;5013;51.840;8.276;2023-07-29T13:51:24;26.70;1.00
9949;DHT22;5013;51.840;8.276;2023-07-29T13:53:49;26.60;1.00
9949;DHT22;5013;51.840;8.276;2023-07-29T13:56:15;26.70;1.00
9949;DHT22;5013;51.840;8.276;2023-07-29T13:58:40;26.90;1.00
9949;DHT22;5013;51.840;8.276;2023-07-29T14:01:06;26.90;1.00
9949;DHT22;5013;51.840;8.276;2023-07-29T14:03:32;27.00;1.00
9949;DHT22;5013;51.840;8.276;2023-07-29T14:05:57;27.10;1.00
9949;DHT22;5013;51.840;8.276;2023-07-29T14:08:23;26.90;1.00
9949;DHT22;5013;51.840;8.276;2023-07-29T14:10:49;26.60;1.00
9949;DHT22;5013;51.840;8.276;2023-07-29T14:13:15;26.60;1.00
9949;DHT22;5013;51.840;8.276;2023-07-29T14:15:40;26.30;1.00
9949;DHT22;5013;51.840;8.276;2023-07-29T14:18:06;26.10;1.00
9949;DHT22;5013;51.840;8.276;2023-07-29T14:20:32;25.80;1.00
9949;DHT22;5013;51.840;8.276;2023-07-29T14:22:58;25.80;1.00
9949;DHT22;5013;51.840;8.276;2023-07-29T14:25:24;25.70;1.00
9949;DHT22;5013;51.840;8.276;2023-07-29T14:27:50;25.60;1.00
9949;DHT22;5013;51.840;8.276;2023-07-29T14:30:15;25.40;1.00
9949;DHT22;5013;51.840;8.276;2023-07-29T14:32:41;25.30;1.00
9949;DHT22;5013;51.840;8.276;2023-07-29T14:35:07;25.30;1.00
9949;DHT22;5013;51.840;8.276;2023-07-29T14:37:33;25.40;1.00
9949;DHT22;5013;51.840;8.276;2023-07-29T14:39:59;25.50;1.00
9949;DHT22;5013;51.840;8.276;2023-07-29T14:42:25;25.50;1.00
9949;DHT22;5013;51.840;8.276;2023-07-29T14:44:51;25.50;1.00
9949;DHT22;5013;51.840;8.276;2023-07-29T14:47:17;25.40;1.00
9949;DHT22;5013;51.840;8.276;2023-07-29T14:49:43;25.20;1.00
9949;DHT22;5013;51.840;8.276;2023-07-29T14:52:09;25.10;1.00
9949;DHT22;5013;51.840;8.276;2023-07-29T14:54:35;25.10;1.00
9949;DHT22;5013;51.840;8.276;2023-07-29T14:57:01;24.90;1.00
9949;DHT22;5013;51.840;8.276;2023-07-29T14:59:26;24.70;1.00
9949;DHT22;5013;51.840;8.276;2023-07-29T15:01:52;24.60;19.70
9949;DHT22;5013;51.840;8.276;2023-07-29T15:04:18;24.40;34.20
9949;DHT22;5013;51.840;8.276;2023-07-29T15:06:44;24.30;93.70
9949;DHT22;5013;51.840;8.276;2023-07-29T15:09:09;24.20;99.90
9949;DHT22;5013;51.840;8.276;2023-07-29T15:11:35;24.10;99.90
9949;DHT22;5013;51.840;8.276;2023-07-29T15:20:45;21.50;1.00
9949;DHT22;5013;51.840;8.276;2023-07-29T15:23:11;20.30;1.00
9949;DHT22;5013;51.840;8.276;2023-07-29T15:25:37;19.90;99.90
9949;DHT22;5013;51.840;8.276;2023-07-29T15:28:04;19.70;22.70
9949;DHT22;5013;51.840;8.276;2023-07-29T15:30:29;19.60;1.00
9949;DHT22;5013;51.840;8.276;2023-07-29T15:32:55;19.60;99.90
9949;DHT22;5013;51.840;8.276;2023-07-29T15:35:22;19.40;99.90
9949;DHT22;5013;51.840;8.276;2023-07-29T15:37:47;19.40;1.00
9949;DHT22;5013;51.840;8.276;2023-07-29T15:40:13;19.40;44.30
9949;DHT22;5013;51.840;8.276;2023-07-29T15:42:39;19.30;99.90
9949;DHT22;5013;51.840;8.276;2023-07-29T15:45:05;19.20;1.00
9949;DHT22;5013;51.840;8.276;2023-07-29T15:47:31;19.20;99.90
9949;DHT22;5013;51.840;8.276;2023-07-29T15:49:57;18.90;99.90
9949;DHT22;5013;51.840;8.276;2023-07-29T15:52:22;18.90;99.90
9949;DHT22;5013;51.840;8.276;2023-07-29T15:54:49;19.00;99.90
9949;DHT22;5013;51.840;8.276;2023-07-29T15:57:16;19.10;99.90
9949;DHT22;5013;51.840;8.276;2023-07-29T15:59:42;19.10;1.00
9949;DHT22;5013;51.840;8.276;2023-07-29T16:02:07;19.10;99.90
9949;DHT22;5013;51.840;8.276;2023-07-29T16:04:34;19.10;1.00
9949;DHT22;5013;51.840;8.276;2023-07-29T16:06:59;19.10;1.00
9949;DHT22;5013;51.840;8.276;2023-07-29T16:09:25;19.20;99.90
9949;DHT22;5013;51.840;8.276;2023-07-29T16:11:51;19.60;1.00
9949;DHT22;5013;51.840;8.276;2023-07-29T16:14:17;19.90;99.90
9949;DHT22;5013;51.840;8.276;2023-07-29T16:16:44;20.20;99.90
9949;DHT22;5013;51.840;8.276;2023-07-29T16:19:10;20.50;99.90
9949;DHT22;5013;51.840;8.276;2023-07-29T16:21:36;20.70;1.00
9949;DHT22;5013;51.840;8.276;2023-07-29T16:24:02;20.80;99.90
9949;DHT22;5013;51.840;8.276;2023-07-29T16:26:28;20.70;99.10